Wetterdaten: Woche 17.05.04 - 23.05.04 (KW21)
Datum Zeit Temperatur Luftfeuchte Luftdruck Regenmenge Wind Richtung Taupunkt Windchill
17.05.2004 00:00 9.6 C 74 % 1026.0 hPa 0.0 l/m 0.2 km/h (0 Bft) O 5.2 C 9.6 C
17.05.2004 01:00 8.4 C 84 % 1026.2 hPa 0.0 l/m 0.4 km/h (0 Bft) N-NO 5.9 C 8.4 C
17.05.2004 02:00 7.9 C 86 % 1025.5 hPa 0.0 l/m 0.0 km/h (0 Bft) N 5.7 C 7.9 C
17.05.2004 03:00 7.5 C 85 % 1025.3 hPa 0.0 l/m 0.1 km/h (0 Bft) N 5.2 C 7.5 C
17.05.2004 04:00 6.9 C 91 % 1025.4 hPa 0.0 l/m 0.0 km/h (0 Bft) N 5.5 C 6.9 C
17.05.2004 05:00 6.5 C 94 % 1025.4 hPa 0.0 l/m 0.0 km/h (0 Bft) N 5.6 C 6.5 C
17.05.2004 06:00 6.4 C 94 % 1026.5 hPa 0.0 l/m 0.0 km/h (0 Bft) N 5.5 C 6.4 C
17.05.2004 07:00 8.3 C 83 % 1026.2 hPa 0.0 l/m 0.2 km/h (0 Bft) N-NW 5.6 C 8.3 C
17.05.2004 08:00 10.9 C 70 % 1025.8 hPa 0.0 l/m 0.3 km/h (0 Bft) NW 5.7 C 10.9 C
17.05.2004 09:00 14.5 C 57 % 1025.4 hPa 0.0 l/m 6.8 km/h (2 Bft) O-SO 6.1 C 14.5 C
17.05.2004 10:00 17.0 C 48 % 1025.0 hPa 0.0 l/m 11.3 km/h (2 Bft) O-SO 5.9 C 17.0 C
17.05.2004 11:00 18.9 C 38 % 1024.6 hPa 0.0 l/m 8.2 km/h (2 Bft) O-SO 4.4 C 18.9 C
17.05.2004 12:00 20.9 C 30 % 1023.5 hPa 0.0 l/m 5.9 km/h (2 Bft) O-SO 2.4 C 20.9 C
17.05.2004 13:00 22.8 C 27 % 1023.2 hPa 0.0 l/m 8.2 km/h (2 Bft) O-SO 2.6 C 22.8 C
17.05.2004 14:00 24.1 C 28 % 1022.5 hPa 0.0 l/m 15.9 km/h (3 Bft) O-SO 4.5 C 24.1 C
17.05.2004 15:00 24.4 C 29 % 1022.0 hPa 0.0 l/m 13.8 km/h (3 Bft) O-SO 5.3 C 24.4 C
17.05.2004 16:00 24.5 C 29 % 1021.6 hPa 0.0 l/m 12.8 km/h (3 Bft) O-SO 5.3 C 24.5 C
17.05.2004 17:00 24.3 C 30 % 1021.0 hPa 0.0 l/m 12.5 km/h (3 Bft) O-SO 5.4 C 24.3 C
17.05.2004 18:00 23.7 C 32 % 1021.0 hPa 0.0 l/m 14.0 km/h (3 Bft) O-SO 5.9 C 23.7 C
17.05.2004 19:00 22.7 C 35 % 1021.2 hPa 0.0 l/m 8.0 km/h (2 Bft) O-SO 6.2 C 22.7 C
17.05.2004 20:00 20.6 C 40 % 1021.4 hPa 0.0 l/m 3.0 km/h (1 Bft) O-SO 6.5 C 20.6 C
17.05.2004 21:00 16.0 C 54 % 1022.0 hPa 0.0 l/m 1.8 km/h (1 Bft) O-SO 6.7 C 16.0 C
17.05.2004 22:00 13.5 C 66 % 1023.2 hPa 0.0 l/m 3.0 km/h (1 Bft) O-SO 7.3 C 13.5 C
17.05.2004 23:00 11.8 C 74 % 1023.6 hPa 0.0 l/m 2.9 km/h (1 Bft) O-SO 7.3 C 11.8 C
18.05.2004 00:00 10.5 C 80 % 1023.8 hPa 0.0 l/m 2.6 km/h (1 Bft) O-SO 7.2 C 10.5 C
18.05.2004 01:00 9.5 C 85 % 1024.0 hPa 0.0 l/m 0.6 km/h (0 Bft) O-SO 7.1 C 9.5 C
18.05.2004 02:00 8.9 C 88 % 1024.0 hPa 0.0 l/m 3.2 km/h (1 Bft) O-SO 7.0 C 8.8 C
18.05.2004 03:00 8.3 C 91 % 1024.1 hPa 0.0 l/m 0.4 km/h (0 Bft) O-SO 6.9 C 8.3 C
18.05.2004 04:00 7.6 C 93 % 1024.2 hPa 0.0 l/m 0.8 km/h (0 Bft) O-SO 6.5 C 7.5 C
18.05.2004 05:00 7.1 C 96 % 1024.6 hPa 0.0 l/m 0.8 km/h (0 Bft) O-SO 6.6 C 7.1 C
18.05.2004 06:00 7.2 C 98 % 1025.3 hPa 0.0 l/m 0.7 km/h (0 Bft) O-SO 6.9 C 7.1 C
18.05.2004 07:00 8.8 C 96 % 1025.1 hPa 0.0 l/m 0.3 km/h (0 Bft) O-SO 8.2 C 8.8 C
18.05.2004 08:00 11.6 C 78 % 1024.7 hPa 0.0 l/m 0.3 km/h (0 Bft) O-SO 7.9 C 11.6 C
18.05.2004 09:00 14.4 C 64 % 1024.3 hPa 0.0 l/m 0.1 km/h (0 Bft) O-SO 7.6 C 14.4 C
18.05.2004 10:00 18.1 C 55 % 1023.8 hPa 0.0 l/m 1.4 km/h (1 Bft) O-SO 8.8 C 18.1 C
18.05.2004 11:00 21.2 C 44 % 1023.4 hPa 0.0 l/m 5.6 km/h (1 Bft) O-SO 8.3 C 21.2 C
18.05.2004 12:00 23.8 C 37 % 1022.5 hPa 0.0 l/m 8.9 km/h (2 Bft) O-SO 8.0 C 23.8 C
18.05.2004 13:00 25.5 C 27 % 1021.8 hPa 0.0 l/m 7.5 km/h (2 Bft) NW 5.0 C 25.5 C
18.05.2004 14:00 26.5 C 25 % 1021.5 hPa 0.0 l/m 12.7 km/h (3 Bft) NW 4.9 C 26.5 C
18.05.2004 15:00 27.3 C 25 % 1020.6 hPa 0.0 l/m 13.5 km/h (3 Bft) NW 5.7 C 27.3 C
18.05.2004 16:00 27.7 C 26 % 1020.5 hPa 0.0 l/m 12.8 km/h (3 Bft) NW 6.3 C 27.7 C
18.05.2004 17:00 27.6 C 26 % 1020.5 hPa 0.0 l/m 12.3 km/h (3 Bft) NW 6.3 C 27.6 C
18.05.2004 18:00 26.9 C 27 % 1020.0 hPa 0.0 l/m 10.3 km/h (2 Bft) NW 6.1 C 26.9 C
18.05.2004 19:00 25.4 C 33 % 1020.0 hPa 0.0 l/m 6.2 km/h (2 Bft) NW 7.8 C 25.4 C
18.05.2004 20:00 23.2 C 38 % 1021.1 hPa 0.0 l/m 7.0 km/h (2 Bft) NW 8.0 C 23.2 C
18.05.2004 21:00 20.9 C 43 % 1021.4 hPa 0.0 l/m 1.1 km/h (1 Bft) O-NO 7.6 C 20.9 C
18.05.2004 22:00 19.1 C 45 % 1022.7 hPa 0.0 l/m 0.7 km/h (0 Bft) N-NO 6.8 C 19.1 C
18.05.2004 23:00 18.3 C 48 % 1022.8 hPa 0.0 l/m 0.2 km/h (0 Bft) N 7.1 C 18.3 C
19.05.2004 00:00 14.6 C 65 % 1023.8 hPa 0.0 l/m 0.9 km/h (0 Bft) O-SO 8.1 C 14.6 C
19.05.2004 01:00 12.7 C 76 % 1024.6 hPa 0.0 l/m 3.8 km/h (1 Bft) O-SO 8.6 C 12.7 C
19.05.2004 02:00 11.5 C 82 % 1024.7 hPa 0.0 l/m 0.1 km/h (0 Bft) N 8.6 C 11.5 C
19.05.2004 03:00 10.7 C 87 % 1024.8 hPa 0.0 l/m 0.8 km/h (0 Bft) O-SO 8.5 C 10.7 C
19.05.2004 04:00 10.0 C 90 % 1024.9 hPa 0.0 l/m 1.0 km/h (0 Bft) O-SO 8.5 C 10.0 C
19.05.2004 05:00 9.2 C 94 % 1025.0 hPa 0.0 l/m 0.4 km/h (0 Bft) O-SO 8.2 C 9.2 C
19.05.2004 06:00 9.5 C 95 % 1025.6 hPa 0.0 l/m 0.4 km/h (0 Bft) O-SO 8.8 C 9.5 C
19.05.2004 07:00 11.1 C 91 % 1025.1 hPa 0.0 l/m 0.0 km/h (0 Bft) N 9.8 C 11.1 C
19.05.2004 08:00 13.3 C 78 % 1025.5 hPa 0.0 l/m 0.0 km/h (0 Bft) N 9.5 C 13.3 C
19.05.2004 09:00 16.3 C 65 % 1025.1 hPa 0.0 l/m 0.2 km/h (0 Bft) N 9.8 C 16.3 C
19.05.2004 10:00 19.3 C 54 % 1024.4 hPa 0.0 l/m 0.3 km/h (0 Bft) N 9.8 C 19.3 C
19.05.2004 11:00 22.0 C 48 % 1023.3 hPa 0.0 l/m 1.6 km/h (1 Bft) O 10.3 C 22.0 C
19.05.2004 12:00 23.7 C 36 % 1023.1 hPa 0.0 l/m 7.5 km/h (2 Bft) NW 7.7 C 23.7 C
19.05.2004 13:00 24.8 C 29 % 1022.6 hPa 0.0 l/m 11.2 km/h (2 Bft) NW 5.7 C 24.8 C
19.05.2004 14:00 25.6 C 25 % 1021.8 hPa 0.0 l/m 14.6 km/h (3 Bft) NW 4.1 C 25.6 C
19.05.2004 15:00 26.1 C 25 % 1021.8 hPa 0.0 l/m 16.3 km/h (3 Bft) NW 4.5 C 26.1 C
19.05.2004 16:00 26.7 C 25 % 1021.2 hPa 0.0 l/m 18.0 km/h (3 Bft) NW 5.2 C 26.7 C
19.05.2004 17:00 26.9 C 31 % 1020.6 hPa 0.0 l/m 10.2 km/h (2 Bft) NW 8.1 C 26.9 C
19.05.2004 18:00 26.3 C 35 % 1020.7 hPa 0.0 l/m 11.2 km/h (2 Bft) NW 9.5 C 26.3 C
19.05.2004 19:00 24.9 C 42 % 1020.9 hPa 0.0 l/m 7.7 km/h (2 Bft) NW 10.9 C 24.9 C
19.05.2004 20:00 22.7 C 49 % 1021.2 hPa 0.0 l/m 2.3 km/h (1 Bft) NW 11.3 C 22.7 C
19.05.2004 21:00 19.1 C 59 % 1021.6 hPa 0.0 l/m 3.5 km/h (1 Bft) O-SO 10.9 C 19.1 C
19.05.2004 22:00 15.9 C 72 % 1022.8 hPa 0.0 l/m 4.4 km/h (1 Bft) O-SO 10.8 C 15.9 C
19.05.2004 23:00 14.7 C 78 % 1023.1 hPa 0.0 l/m 4.0 km/h (1 Bft) O-SO 10.8 C 14.7 C
20.05.2004 00:00 13.4 C 83 % 1023.4 hPa 0.0 l/m 1.3 km/h (1 Bft) O-SO 10.6 C 13.4 C
20.05.2004 01:00 12.4 C 88 % 1023.6 hPa 0.0 l/m 0.2 km/h (0 Bft) O-SO 10.4 C 12.4 C
20.05.2004 02:00 11.7 C 91 % 1023.4 hPa 0.0 l/m 0.1 km/h (0 Bft) O-SO 10.2 C 11.7 C
20.05.2004 03:00 11.1 C 92 % 1022.7 hPa 0.0 l/m 0.1 km/h (0 Bft) N 9.9 C 11.1 C
20.05.2004 04:00 10.3 C 94 % 1022.8 hPa 0.0 l/m 0.0 km/h (0 Bft) N 9.4 C 10.3 C
20.05.2004 05:00 9.7 C 96 % 1022.6 hPa 0.0 l/m 0.0 km/h (0 Bft) N 9.1 C 9.7 C
20.05.2004 06:00 10.0 C 97 % 1022.7 hPa 0.0 l/m 2.4 km/h (1 Bft) O-SO 9.6 C 10.0 C
20.05.2004 07:00 11.5 C 92 % 1021.6 hPa 0.0 l/m 0.0 km/h (0 Bft) N 10.2 C 11.5 C
20.05.2004 08:00 13.3 C 80 % 1021.4 hPa 0.0 l/m 0.0 km/h (0 Bft) N 9.8 C 13.3 C
20.05.2004 09:00 16.0 C 68 % 1020.7 hPa 0.0 l/m 0.0 km/h (0 Bft) N 10.0 C 16.0 C
20.05.2004 10:00 19.0 C 55 % 1019.6 hPa 0.0 l/m 0.3 km/h (0 Bft) N-NW 9.7 C 19.0 C
20.05.2004 11:00 21.6 C 47 % 1018.8 hPa 0.0 l/m 1.4 km/h (1 Bft) NW 9.7 C 21.6 C
20.05.2004 12:00 24.0 C 41 % 1017.8 hPa 0.0 l/m 1.4 km/h (1 Bft) SO 9.9 C 24.0 C
20.05.2004 13:00 26.1 C 31 % 1016.6 hPa 0.0 l/m 3.5 km/h (1 Bft) O-SO 7.4 C 26.1 C
20.05.2004 14:00 27.8 C 25 % 1015.3 hPa 0.0 l/m 6.8 km/h (2 Bft) NW 6.0 C 27.8 C
20.05.2004 15:00 28.6 C 26 % 1014.6 hPa 0.0 l/m 8.1 km/h (2 Bft) NW 7.2 C 28.6 C
20.05.2004 16:00 28.9 C 29 % 1014.1 hPa 0.0 l/m 6.7 km/h (2 Bft) NW 8.9 C 28.9 C
20.05.2004 17:00 28.9 C 31 % 1013.1 hPa 0.0 l/m 4.6 km/h (1 Bft) NW 9.8 C 28.9 C
20.05.2004 18:00 27.8 C 37 % 1013.0 hPa 0.0 l/m 8.8 km/h (2 Bft) NW 11.5 C 27.8 C
20.05.2004 19:00 26.0 C 39 % 1012.4 hPa 0.0 l/m 11.4 km/h (2 Bft) NW 11.0 C 26.0 C
20.05.2004 20:00 23.8 C 42 % 1012.7 hPa 0.0 l/m 6.2 km/h (2 Bft) NW 10.2 C 23.8 C
20.05.2004 21:00 20.2 C 49 % 1013.8 hPa 0.0 l/m 5.4 km/h (1 Bft) O-SO 9.2 C 20.2 C
20.05.2004 22:00 18.4 C 49 % 1014.4 hPa 0.0 l/m 4.0 km/h (1 Bft) O-SO 7.7 C 18.4 C
20.05.2004 23:00 17.5 C 56 % 1014.6 hPa 0.0 l/m 0.0 km/h (0 Bft) N 8.6 C 17.5 C
21.05.2004 00:00 15.5 C 70 % 1014.8 hPa 0.0 l/m 0.3 km/h (0 Bft) O 10.0 C 15.5 C
21.05.2004 01:00 14.7 C 74 % 1014.9 hPa 0.0 l/m 0.1 km/h (0 Bft) N 10.2 C 14.7 C
21.05.2004 02:00 14.0 C 77 % 1015.0 hPa 0.0 l/m 0.9 km/h (0 Bft) O 10.1 C 14.0 C
21.05.2004 03:00 13.4 C 80 % 1014.2 hPa 0.0 l/m 1.8 km/h (1 Bft) O-SO 10.1 C 13.4 C
21.05.2004 04:00 12.9 C 83 % 1014.1 hPa 0.0 l/m 2.7 km/h (1 Bft) O-SO 10.0 C 12.9 C
21.05.2004 05:00 14.0 C 81 % 1014.0 hPa 0.0 l/m 1.3 km/h (1 Bft) SO 10.8 C 14.0 C
21.05.2004 06:00 14.4 C 87 % 1013.9 hPa 0.0 l/m 1.0 km/h (0 Bft) SO 12.2 C 14.4 C
21.05.2004 07:00 14.6 C 90 % 1014.3 hPa 0.7 l/m 0.2 km/h (0 Bft) N 13.0 C 14.6 C
21.05.2004 08:00 14.6 C 97 % 1014.9 hPa 0.3 l/m 1.9 km/h (1 Bft) O-SO 14.1 C 14.6 C
21.05.2004 09:00 14.8 C 97 % 1014.9 hPa 0.3 l/m 0.7 km/h (0 Bft) NW 14.4 C 14.8 C
21.05.2004 10:00 14.7 C 99 % 1014.7 hPa 3.7 l/m 4.0 km/h (1 Bft) O-SO 14.6 C 14.7 C
21.05.2004 11:00 17.1 C 94 % 1014.0 hPa 0.0 l/m 2.6 km/h (1 Bft) O-SO 16.1 C 17.1 C
21.05.2004 12:00 17.5 C 92 % 1013.5 hPa 0.0 l/m 1.2 km/h (1 Bft) SO 16.2 C 17.5 C
21.05.2004 13:00 18.0 C 85 % 1013.3 hPa 0.0 l/m 0.3 km/h (0 Bft) N-NO 15.5 C 18.0 C
21.05.2004 14:00 16.3 C 81 % 1013.5 hPa 1.3 l/m 11.4 km/h (2 Bft) NW 13.0 C 16.3 C
21.05.2004 15:00 14.4 C 96 % 1013.9 hPa 1.3 l/m 2.5 km/h (1 Bft) SO 13.7 C 14.4 C
21.05.2004 16:00 15.0 C 92 % 1013.6 hPa 0.0 l/m 1.3 km/h (1 Bft) O 13.8 C 15.0 C
21.05.2004 17:00 15.6 C 88 % 1013.2 hPa 0.0 l/m 0.7 km/h (0 Bft) S 13.6 C 15.6 C
21.05.2004 18:00 15.1 C 92 % 1013.2 hPa 0.7 l/m 0.6 km/h (0 Bft) O-SO 13.8 C 15.1 C
21.05.2004 19:00 14.0 C 97 % 1013.4 hPa 14.1 l/m 2.1 km/h (1 Bft) O-SO 13.4 C 14.0 C
21.05.2004 20:00 13.3 C 100 % 1014.1 hPa 3.7 l/m 0.0 km/h (0 Bft) N 13.3 C 13.3 C
21.05.2004 21:00 13.2 C 100 % 1014.9 hPa 0.7 l/m 0.1 km/h (0 Bft) N 13.2 C 13.2 C
21.05.2004 22:00 12.9 C 100 % 1015.3 hPa 1.0 l/m 0.0 km/h (0 Bft) N 12.9 C 12.9 C
21.05.2004 23:00 12.5 C 100 % 1016.3 hPa 1.0 l/m 0.0 km/h (0 Bft) N 12.5 C 12.5 C
22.05.2004 00:00 12.3 C 100 % 1016.3 hPa 0.3 l/m 0.0 km/h (0 Bft) N 12.3 C 12.3 C
22.05.2004 01:00 12.2 C 100 % 1016.3 hPa 0.3 l/m 0.0 km/h (0 Bft) N 12.2 C 12.2 C
22.05.2004 02:00 12.1 C 100 % 1016.3 hPa 1.3 l/m 0.0 km/h (0 Bft) N 12.1 C 12.1 C
22.05.2004 03:00 11.2 C 100 % 1016.4 hPa 4.0 l/m 2.1 km/h (1 Bft) NW 11.2 C 11.2 C
22.05.2004 04:00 10.3 C 100 % 1017.1 hPa 5.0 l/m 3.0 km/h (1 Bft) N-NW 10.3 C 10.2 C
22.05.2004 05:00 9.1 C 100 % 1017.8 hPa 3.0 l/m 2.8 km/h (1 Bft) NO 9.1 C 8.8 C
22.05.2004 06:00 8.3 C 100 % 1018.6 hPa 1.0 l/m 1.1 km/h (1 Bft) N 8.3 C 8.1 C
22.05.2004 07:00 8.0 C 99 % 1019.0 hPa 1.0 l/m 2.6 km/h (1 Bft) N-NO 7.9 C 7.7 C
22.05.2004 08:00 8.4 C 99 % 1020.0 hPa 0.0 l/m 0.8 km/h (0 Bft) O 8.3 C 8.4 C
22.05.2004 09:00 8.7 C 99 % 1020.3 hPa 0.3 l/m 6.3 km/h (2 Bft) O-SO 8.5 C 7.7 C
22.05.2004 10:00 8.5 C 99 % 1021.0 hPa 0.0 l/m 7.7 km/h (2 Bft) O-SO 8.3 C 7.3 C
22.05.2004 11:00 9.3 C 99 % 1020.9 hPa 0.0 l/m 2.7 km/h (1 Bft) O-SO 9.1 C 9.0 C
22.05.2004 12:00 9.6 C 94 % 1021.7 hPa 0.0 l/m 0.5 km/h (0 Bft) N 8.6 C 9.5 C
22.05.2004 13:00 10.6 C 84 % 1021.7 hPa 0.0 l/m 0.8 km/h (0 Bft) N-NO 8.0 C 10.6 C
22.05.2004 14:00 10.7 C 84 % 1021.7 hPa 0.0 l/m 4.7 km/h (1 Bft) O-SO 8.1 C 10.7 C
22.05.2004 15:00 10.0 C 93 % 1021.8 hPa 0.0 l/m 4.5 km/h (1 Bft) O-SO 8.8 C 9.5 C
22.05.2004 16:00 11.5 C 80 % 1021.6 hPa 0.0 l/m 3.2 km/h (1 Bft) O-SO 8.2 C 11.5 C
22.05.2004 17:00 10.3 C 83 % 1021.6 hPa 0.0 l/m 1.5 km/h (1 Bft) SO 7.6 C 10.3 C
22.05.2004 18:00 10.4 C 84 % 1021.8 hPa 0.0 l/m 0.0 km/h (0 Bft) N 7.7 C 10.4 C
22.05.2004 19:00 10.4 C 82 % 1021.8 hPa 0.0 l/m 0.0 km/h (0 Bft) N 7.5 C 10.4 C
22.05.2004 20:00 10.3 C 83 % 1021.8 hPa 0.0 l/m 0.0 km/h (0 Bft) N 7.5 C 10.3 C
22.05.2004 21:00 9.5 C 91 % 1021.9 hPa 0.0 l/m 0.0 km/h (0 Bft) N 8.0 C 9.5 C
22.05.2004 22:00 8.1 C 97 % 1022.6 hPa 0.0 l/m 0.5 km/h (0 Bft) O-NO 7.7 C 8.1 C
22.05.2004 23:00 7.7 C 90 % 1023.2 hPa 0.0 l/m 1.6 km/h (1 Bft) N-NO 6.1 C 7.6 C
23.05.2004 00:00 7.5 C 72 % 1023.2 hPa 0.0 l/m 1.8 km/h (1 Bft) N-NO 2.7 C 7.3 C
23.05.2004 01:00 6.3 C 73 % 1023.4 hPa 0.0 l/m 0.5 km/h (0 Bft) NO 1.7 C 6.3 C
23.05.2004 02:00 4.7 C 80 % 1023.6 hPa 0.0 l/m 0.1 km/h (0 Bft) N 1.5 C 4.7 C
23.05.2004 03:00 3.3 C 91 % 1023.8 hPa 0.0 l/m 0.9 km/h (0 Bft) NO 2.1 C 3.3 C
23.05.2004 04:00 2.6 C 96 % 1023.9 hPa 0.0 l/m 0.0 km/h (0 Bft) N 2.1 C 2.6 C
23.05.2004 05:00 2.1 C 100 % 1024.0 hPa 0.0 l/m 0.0 km/h (0 Bft) N 2.0 C 2.1 C
23.05.2004 06:00 2.5 C 100 % 1024.9 hPa 0.0 l/m 0.2 km/h (0 Bft) NO 2.5 C 2.5 C
23.05.2004 07:00 3.6 C 99 % 1024.8 hPa 0.0 l/m 0.0 km/h (0 Bft) N 3.4 C 3.6 C
23.05.2004 08:00 5.4 C 82 % 1025.2 hPa 0.0 l/m 0.7 km/h (0 Bft) NW 2.5 C 5.3 C
23.05.2004 09:00 8.5 C 67 % 1025.1 hPa 0.0 l/m 6.4 km/h (2 Bft) O-SO 2.8 C 7.6 C
23.05.2004 10:00 10.8 C 57 % 1024.1 hPa 0.0 l/m 11.1 km/h (2 Bft) O-SO 2.6 C 10.7 C
23.05.2004 11:00 12.4 C 47 % 1023.6 hPa 0.0 l/m 7.6 km/h (2 Bft) O-SO 1.3 C 12.4 C
23.05.2004 12:00 13.1 C 39 % 1023.5 hPa 0.0 l/m 2.3 km/h (1 Bft) O-SO -0.4 C 13.1 C
23.05.2004 13:00 13.9 C 38 % 1023.4 hPa 0.0 l/m 2.6 km/h (1 Bft) O-NO -0.2 C 13.9 C
23.05.2004 14:00 14.2 C 37 % 1023.3 hPa 0.0 l/m 1.7 km/h (1 Bft) NW -0.4 C 14.2 C
23.05.2004 15:00 14.8 C 40 % 1022.2 hPa 0.0 l/m 5.3 km/h (1 Bft) O-SO 1.3 C 14.8 C
23.05.2004 16:00 15.4 C 38 % 1022.1 hPa 0.0 l/m 3.5 km/h (1 Bft) NO 1.0 C 15.4 C
23.05.2004 17:00 13.9 C 44 % 1022.3 hPa 0.0 l/m 1.3 km/h (1 Bft) O-SO 1.9 C 13.9 C
23.05.2004 18:00 12.6 C 52 % 1022.5 hPa 0.0 l/m 5.8 km/h (2 Bft) O-SO 3.0 C 12.6 C
23.05.2004 19:00 12.1 C 56 % 1023.2 hPa 0.0 l/m 1.7 km/h (1 Bft) O-SO 3.7 C 12.1 C
23.05.2004 20:00 11.8 C 48 % 1023.7 hPa 0.0 l/m 1.2 km/h (1 Bft) NO 1.0 C 11.8 C
23.05.2004 21:00 10.8 C 46 % 1024.8 hPa 0.0 l/m 2.7 km/h (1 Bft) N-NO -0.3 C 10.8 C
23.05.2004 22:00 9.7 C 50 % 1025.4 hPa 0.0 l/m 0.8 km/h (0 Bft) N-NO -0.1 C 9.7 C
23.05.2004 23:00 8.5 C 57 % 1026.2 hPa 0.0 l/m 0.0 km/h (0 Bft) N 0.4 C 8.5 C
Min-Datum _ 23.05.04 17.05.04 20.05.04 - 17.05.04 - 23.05.04 23.05.04
_ Min-Zeit 05:20 12:26 18:47 - 00:11 - 12:29 05:20
Minimum _ 1.6 C 25 % 1012.3 hPa - 0.0 km/h (0 Bft) - -2.2 C 1.6 C
Max-Datum _ 20.05.04 18.05.04 17.05.04 21.05.04 21.05.04 - 21.05.04 20.05.04
_ Max-Zeit 16:41 06:41 06:26 19:32 14:35 - 12:29 16:41
Maximum _ 29.4 C 100 % 1026.6 hPa 14.1 l/m 31.6 km/h
NW (5 Bft)
- 17.1 C 29.4 C
Durchschnitt _ 14.9 C 69 % 1020.9 hPa #45.2 l/m 3.4 km/h (1 Bft) O-SO 7.7 C 14.9 C

Durchschnitt Minimum Temp.13.9 C
Durchschnitt Maximum Temp.15.9 C
© Kaiko 2004